createdAt,value
2018-04-28T08:07:51.138Z,97834.05
2018-04-28T08:10:18.747Z,97841.59
2018-04-28T15:36:12.629Z,97431.52
2018-04-28T15:38:40.256Z,97422.69
2018-04-28T15:41:07.803Z,97422.87
2018-04-28T15:43:35.504Z,97424.27
2018-04-28T15:46:03.735Z,97422.91
2018-04-28T15:48:31.407Z,97422.87
2018-04-28T15:50:59.089Z,97417.75
2018-04-28T15:53:27.004Z,97426.64
2018-04-28T15:55:54.534Z,97419.14
2018-04-28T15:58:22.280Z,97416.98
2018-04-28T16:00:50.085Z,97416.01
2018-04-28T16:03:17.653Z,97416.02
2018-04-28T16:05:45.341Z,97407.92
2018-04-28T16:08:12.955Z,97413.44
2018-04-28T16:10:40.858Z,97404.73
2018-04-28T16:13:08.451Z,97406.31
2018-04-28T16:15:36.191Z,97406.86
2018-04-28T16:18:03.731Z,97404.50
2018-04-28T16:20:31.545Z,97399.16
2018-04-28T16:22:59.061Z,97402.41
2018-04-28T16:25:26.668Z,97400.41
2018-04-28T16:27:54.285Z,97393.53
2018-04-28T16:30:21.941Z,97396.47
2018-04-28T16:32:49.669Z,97397.44
2018-04-28T16:35:18.248Z,97400.33
2018-04-28T16:37:45.814Z,97400.42
2018-04-28T16:40:13.927Z,97398.20
2018-04-28T16:42:41.550Z,97399.88
2018-04-28T16:45:09.265Z,97399.48
2018-04-28T16:47:36.833Z,97401.64
2018-04-28T16:50:04.427Z,97398.45
2018-04-28T16:52:32.144Z,97393.83
2018-04-28T16:54:59.896Z,97397.16
2018-04-28T16:57:27.507Z,97394.34
2018-04-28T16:59:55.166Z,97396.03
2018-04-28T17:02:23.542Z,97395.30
2018-04-28T17:04:51.125Z,97398.55
2018-04-28T17:07:18.826Z,97397.20
2018-04-28T17:09:46.477Z,97401.98
2018-04-28T17:12:14.061Z,97406.75
2018-04-28T17:14:41.619Z,97411.16
2018-04-28T17:17:09.555Z,97410.07
2018-04-28T17:19:37.135Z,97414.20
2018-04-28T17:22:04.840Z,97405.63
2018-04-28T17:24:32.497Z,97408.98
2018-04-28T17:27:00.184Z,97413.88
2018-04-28T17:29:28.091Z,97413.03
2018-04-28T17:31:55.725Z,97415.93
2018-04-28T17:34:23.517Z,97419.77
2018-04-28T17:36:51.869Z,97423.98
2018-04-28T17:39:19.585Z,97426.58
2018-04-28T17:41:47.170Z,97421.25
2018-04-28T17:44:14.751Z,97422.59
2018-04-28T17:46:43.425Z,97427.41
2018-04-28T17:49:10.977Z,97434.87
2018-04-28T17:51:38.601Z,97436.02
2018-04-28T17:54:06.205Z,97438.13
2018-04-28T17:56:34.005Z,97433.80
2018-04-28T17:59:02.350Z,97438.47
2018-04-28T18:01:30.116Z,97438.27
2018-04-28T18:03:57.647Z,97437.78
2018-04-28T18:06:25.338Z,97440.22
2018-04-28T18:08:52.918Z,97437.95
2018-04-28T18:11:20.601Z,97441.34
2018-04-28T18:13:48.122Z,97439.47
2018-04-28T18:16:15.790Z,97439.74
2018-04-28T18:18:43.841Z,97441.30
2018-04-28T18:21:11.464Z,97440.83
2018-04-28T18:23:39.170Z,97436.15
2018-04-28T18:26:06.833Z,97438.45
2018-04-28T18:28:34.358Z,97443.56
2018-04-28T18:31:01.925Z,97443.89
2018-04-28T18:33:29.820Z,97434.56
2018-04-28T18:35:57.360Z,97437.09
2018-04-28T18:38:25.022Z,97444.38
2018-04-28T18:40:52.706Z,97438.66
2018-04-28T18:43:20.250Z,97441.45
2018-04-28T18:45:47.983Z,97447.09
2018-04-28T18:48:15.541Z,97446.69
2018-04-28T18:50:43.180Z,97446.53
2018-04-28T18:53:10.796Z,97447.02
2018-04-28T18:55:38.350Z,97444.94
2018-04-28T18:58:05.910Z,97447.09
2018-04-28T19:00:33.780Z,97458.90
2018-04-28T19:03:01.317Z,97468.06
2018-04-28T19:05:28.922Z,97467.70
2018-04-28T19:07:56.583Z,97462.24
2018-04-28T19:10:23.685Z,97466.38
2018-04-28T19:12:50.895Z,97466.13
2018-04-28T19:15:18.186Z,97477.32
2018-04-28T19:17:45.794Z,97479.57
2018-04-28T19:20:13.044Z,97480.89
2018-04-28T19:22:40.587Z,97483.27
2018-04-28T19:25:08.281Z,97483.91
2018-04-28T19:27:35.532Z,97481.73
2018-04-28T19:30:03.296Z,97483.66
2018-04-28T19:32:30.470Z,97481.16
2018-04-28T19:34:57.611Z,97493.23
2018-04-28T19:37:24.733Z,97493.03
2018-04-28T19:39:51.921Z,97485.13
2018-04-28T19:42:19.062Z,97480.19
2018-04-28T19:44:46.187Z,97486.02
2018-04-28T19:47:13.280Z,97487.76
2018-04-28T19:49:40.995Z,97479.45
2018-04-28T19:52:08.108Z,97472.06
2018-04-28T19:54:35.905Z,97472.71
2018-04-28T19:57:02.981Z,97473.22
2018-04-28T19:59:30.543Z,97475.67
2018-04-28T20:01:58.162Z,97467.84
2018-04-28T20:04:25.861Z,97460.14
2018-04-28T20:06:53.587Z,97464.37
2018-04-28T20:09:21.319Z,97466.31
2018-04-28T20:11:48.911Z,97468.43
2018-04-28T20:14:16.471Z,97468.45
2018-04-28T20:16:44.141Z,97464.88
2018-04-28T20:19:11.867Z,97459.72
2018-04-28T20:21:39.470Z,97456.55
2018-04-28T20:27:07.562Z,97462.39
2018-04-28T20:29:35.212Z,97457.64
2018-04-28T20:32:02.902Z,97465.36
2018-04-28T20:34:30.746Z,97471.08
2018-04-28T20:36:58.318Z,97470.37
2018-04-28T20:39:25.860Z,97459.69
2018-04-28T20:41:53.452Z,97466.80
2018-04-28T20:44:21.025Z,97467.28
2018-04-28T20:46:48.571Z,97472.88
2018-04-28T20:49:16.172Z,97473.19
2018-04-28T20:51:43.734Z,97483.55
2018-04-28T20:54:11.269Z,97481.98
2018-04-28T20:56:38.853Z,97484.86
2018-04-28T20:59:06.407Z,97481.73
2018-04-28T21:01:34.227Z,97478.26
2018-04-28T21:04:01.959Z,97476.69
2018-04-28T21:06:29.633Z,97476.14
2018-04-28T21:08:57.243Z,97468.94
2018-04-28T21:11:24.863Z,97473.93
2018-04-28T21:13:52.403Z,97475.06
2018-04-28T21:16:19.962Z,97483.66
2018-04-28T21:18:47.671Z,97471.27
2018-04-28T21:21:15.207Z,97478.06
2018-04-28T21:23:43.650Z,97481.94
2018-04-28T21:26:11.380Z,97480.06
2018-04-28T21:28:39.048Z,97483.39
2018-04-28T21:31:07.006Z,97492.59
2018-04-28T21:33:34.303Z,97496.95
2018-04-28T21:36:01.392Z,97507.27
2018-04-28T21:38:28.922Z,97514.48
2018-04-28T21:40:56.082Z,97523.75
2018-04-28T21:43:23.161Z,97525.08
2018-04-28T21:45:50.364Z,97526.37
2018-04-28T21:48:17.516Z,97527.73
2018-04-28T21:50:44.607Z,97529.39
2018-04-28T21:53:12.312Z,97534.50
2018-04-28T21:55:39.552Z,97532.31
2018-04-28T21:58:06.646Z,97525.70
2018-04-28T22:00:33.976Z,97535.02
2018-04-28T22:03:01.110Z,97529.38
2018-04-28T22:05:28.338Z,97532.00
2018-04-28T22:07:55.418Z,97523.22
2018-04-28T22:10:22.536Z,97528.98
2018-04-28T22:12:49.768Z,97538.30
2018-04-28T22:15:16.947Z,97551.03
2018-04-28T22:17:44.422Z,97552.84
2018-04-28T22:20:12.037Z,97555.72
2018-04-28T22:22:39.154Z,97559.80
2018-04-28T22:25:06.841Z,97554.08
2018-04-28T22:27:35.203Z,97560.31
2018-04-28T22:30:02.363Z,97557.89
2018-04-28T22:32:29.457Z,97562.80
2018-04-28T22:34:56.544Z,97564.35
2018-04-28T22:37:24.518Z,97574.91
2018-04-28T22:39:51.602Z,97580.41
2018-04-28T22:42:18.682Z,97586.13
2018-04-28T22:44:45.773Z,97587.89
2018-04-28T22:47:12.861Z,97585.05
2018-04-28T22:49:40.066Z,97595.77
2018-04-28T22:52:07.247Z,97599.63
2018-04-28T22:54:34.361Z,97612.94
2018-04-28T22:57:01.457Z,97621.61
2018-04-28T22:59:28.771Z,97643.91
2018-04-28T23:01:55.814Z,97658.77
2018-04-28T23:04:23.089Z,97678.98
2018-04-28T23:06:50.354Z,97687.31
2018-04-28T23:09:17.977Z,97697.75
2018-04-28T23:11:46.081Z,97706.59
2018-04-28T23:14:13.798Z,97720.34
2018-04-28T23:16:41.056Z,97723.66
2018-04-28T23:19:08.848Z,97729.85
2018-04-28T23:21:36.381Z,97727.38
2018-04-28T23:24:03.635Z,97718.17
2018-04-28T23:26:30.808Z,97710.33
2018-04-28T23:28:57.934Z,97694.42
2018-04-28T23:31:25.161Z,97679.20
2018-04-28T23:33:52.411Z,97658.56
2018-04-28T23:36:19.500Z,97636.78
2018-04-28T23:38:46.620Z,97619.51
2018-04-28T23:41:13.769Z,97617.25
2018-04-28T23:43:40.826Z,97596.77
2018-04-28T23:46:07.909Z,97588.30
2018-04-28T23:48:35.026Z,97578.23
2018-04-28T23:51:02.145Z,97570.58
2018-04-28T23:53:29.246Z,97565.20
2018-04-28T23:55:56.382Z,97561.11
2018-04-28T23:58:23.488Z,97559.76
